Time;durP1;ratioP1;P1;durP2;ratioP2;P2;SDS_P1;SDS_P2;PMS_P1;PMS_P2;Temp;Humidity;BMP_temperature;BMP_pressure;BME280_temperature;BME280_humidity;BME280_pressure;Samples;Min_cycle;Max_cycle;Signal;HPM_P1;HPM_P2
2021/07/10 00:02:15;;;;;;;14.20;6.25;;;;;;;21.71;65.39;100089.56;5112688;28;20043;-75
2021/07/10 00:04:41;;;;;;;12.15;6.25;;;;;;;21.65;65.55;100101.03;5112902;28;20047;-73
2021/07/10 00:07:07;;;;;;;10.25;6.20;;;;;;;21.60;65.73;100090.81;5112817;28;20126;-74
2021/07/10 00:09:33;;;;;;;10.68;6.30;;;;;;;21.58;65.99;100089.31;5113014;28;20042;-72
2021/07/10 00:11:59;;;;;;;10.75;6.47;;;;;;;21.52;66.12;100095.38;5112945;28;20047;-74
2021/07/10 00:14:25;;;;;;;12.80;6.07;;;;;;;21.45;66.25;100093.41;5112638;28;20086;-76
2021/07/10 00:16:50;;;;;;;9.07;6.07;;;;;;;21.39;66.48;100096.81;5112785;28;20067;-72
2021/07/10 00:19:16;;;;;;;13.90;6.63;;;;;;;21.38;66.51;100094.31;5112566;28;20063;-73
2021/07/10 00:21:42;;;;;;;9.57;6.25;;;;;;;21.32;66.94;100093.16;5112438;28;20119;-75
2021/07/10 00:24:08;;;;;;;8.38;6.15;;;;;;;21.28;66.97;100094.53;5112667;28;20085;-72
2021/07/10 00:26:34;;;;;;;14.63;6.38;;;;;;;21.25;67.01;100092.22;5112707;28;20035;-74
2021/07/10 00:29:00;;;;;;;14.00;6.25;;;;;;;21.21;67.30;100089.03;5094740;28;20046;-71
2021/07/10 00:31:27;;;;;;;12.50;6.38;;;;;;;21.21;67.42;100099.81;5112887;28;20039;-73
2021/07/10 00:33:52;;;;;;;12.38;6.55;;;;;;;21.20;67.75;100087.38;5112291;28;20046;-74
2021/07/10 00:36:18;;;;;;;11.10;6.72;;;;;;;21.17;67.86;100088.56;5112305;28;20043;-72
2021/07/10 00:38:44;;;;;;;12.05;6.82;;;;;;;21.17;67.79;100093.94;5094631;28;20050;-74
2021/07/10 00:41:10;;;;;;;11.32;6.35;;;;;;;21.13;67.86;100098.00;5112567;28;20046;-73
2021/07/10 00:43:35;;;;;;;10.43;6.28;;;;;;;21.13;68.07;100097.16;5112394;28;20035;-71
2021/07/10 00:46:02;;;;;;;14.73;6.75;;;;;;;21.13;68.21;100097.16;5112303;28;20040;-73
2021/07/10 00:48:28;;;;;;;11.45;6.10;;;;;;;21.14;68.03;100093.44;5112026;28;20721;-70
2021/07/10 00:50:54;;;;;;;9.80;6.43;;;;;;;21.17;68.15;100093.09;5112342;28;20125;-71
2021/07/10 00:53:20;;;;;;;11.88;6.18;;;;;;;21.13;68.09;100092.63;5093997;28;20100;-71
2021/07/10 00:55:47;;;;;;;10.15;6.22;;;;;;;21.11;68.23;100091.97;5112255;28;20035;-71
2021/07/10 00:58:13;;;;;;;11.30;6.53;;;;;;;21.07;68.16;100093.34;5112090;28;20054;-74
2021/07/10 01:00:40;;;;;;;10.10;6.70;;;;;;;21.06;68.56;100093.50;5094290;28;20047;-72
2021/07/10 01:03:06;;;;;;;13.43;6.50;;;;;;;21.06;68.47;100102.41;5112513;28;20144;-73
2021/07/10 01:05:35;;;;;;;12.35;6.45;;;;;;;21.08;68.55;100103.06;5094115;28;20567;-73
2021/07/10 01:08:00;;;;;;;11.43;6.32;;;;;;;21.07;68.64;100098.72;5112043;28;20066;-73
2021/07/10 01:10:27;;;;;;;10.57;6.57;;;;;;;21.05;68.21;100106.09;5112219;28;20040;-76
2021/07/10 01:12:54;;;;;;;14.73;6.72;;;;;;;21.03;68.37;100107.31;5112176;28;20040;-73
2021/07/10 01:15:26;;;;;;;14.32;7.28;;;;;;;20.96;68.55;100112.53;5111894;28;20496;-72
2021/07/10 01:17:56;;;;;;;14.35;6.50;;;;;;;20.92;68.48;100106.69;5112188;28;20046;-71
2021/07/10 01:20:23;;;;;;;16.45;6.63;;;;;;;20.90;68.47;100108.72;5111865;28;20043;-73
2021/07/10 01:22:50;;;;;;;24.50;8.40;;;;;;;20.85;68.63;100113.78;5077183;28;20054;-73
2021/07/10 01:25:22;;;;;;;13.80;7.40;;;;;;;20.79;68.95;100107.22;5111853;28;20286;-74
2021/07/10 01:27:52;;;;;;;15.40;7.45;;;;;;;20.72;69.29;100103.56;5111866;28;20074;-70
2021/07/10 01:30:20;;;;;;;14.75;7.43;;;;;;;20.71;69.57;100111.78;5111620;28;20105;-71
2021/07/10 01:32:49;;;;;;;13.65;7.70;;;;;;;20.71;69.49;100107.28;5111905;28;20048;-72
2021/07/10 01:35:15;;;;;;;13.73;6.88;;;;;;;20.75;69.46;100116.66;5111811;28;20042;-73
2021/07/10 01:37:42;;;;;;;14.75;6.95;;;;;;;20.80;69.31;100116.97;5111973;28;20082;-71
2021/07/10 01:40:16;;;;;;;9.73;7.10;;;;;;;20.89;69.53;100112.41;5093677;28;20104;-71
2021/07/10 01:42:43;;;;;;;11.43;7.10;;;;;;;20.98;68.90;100110.50;5111641;28;20096;-73
2021/07/10 01:45:09;;;;;;;10.57;7.28;;;;;;;21.06;68.59;100105.09;5093243;28;20046;-72
2021/07/10 01:47:35;;;;;;;12.43;6.80;;;;;;;21.14;68.88;100109.59;5111670;28;20052;-72
2021/07/10 01:50:03;;;;;;;14.30;7.40;;;;;;;21.24;68.39;100112.06;5113339;28;20381;-74
2021/07/10 01:52:29;;;;;;;16.10;7.72;;;;;;;21.29;68.11;100106.97;5111765;28;20042;-73
2021/07/10 01:54:55;;;;;;;16.58;8.45;;;;;;;21.35;67.80;100106.28;5111682;28;20047;-72
2021/07/10 01:57:21;;;;;;;16.80;8.23;;;;;;;21.40;67.67;100108.44;5111383;28;20127;-72
2021/07/10 01:59:46;;;;;;;16.05;8.30;;;;;;;21.42;67.63;100104.56;5111904;28;20533;-72
2021/07/10 02:02:12;;;;;;;15.35;7.93;;;;;;;21.46;67.78;100108.53;5108408;28;20112;-73
2021/07/10 02:04:46;;;;;;;11.95;8.02;;;;;;;21.50;67.62;100111.72;5092654;28;20058;-73
2021/07/10 02:07:13;;;;;;;17.23;8.63;;;;;;;21.42;67.75;100109.94;5110355;28;20052;-72
2021/07/10 02:09:39;;;;;;;16.33;9.13;;;;;;;21.35;68.04;100106.28;5096596;28;20055;-73
2021/07/10 02:12:05;;;;;;;13.55;8.57;;;;;;;21.33;68.68;100116.38;5096262;28;20502;-71
2021/07/10 02:14:31;;;;;;;16.33;9.65;;;;;;;21.34;68.81;100105.41;5114330;28;20047;-72
2021/07/10 02:16:56;;;;;;;16.60;8.60;;;;;;;21.34;69.03;100099.22;5114579;28;20084;-73
2021/07/10 02:19:22;;;;;;;16.35;8.57;;;;;;;21.41;68.82;100105.56;5096176;28;20356;-71
2021/07/10 02:21:48;;;;;;;18.58;9.00;;;;;;;21.48;68.57;100101.16;5114802;28;20047;-73
2021/07/10 02:24:14;;;;;;;16.20;8.73;;;;;;;21.57;68.26;100103.78;5096098;28;20572;-71
2021/07/10 02:26:40;;;;;;;12.82;8.48;;;;;;;21.65;67.94;100107.25;5114228;28;20040;-72
2021/07/10 02:29:06;;;;;;;16.13;8.23;;;;;;;21.70;67.78;100104.03;5114439;28;20032;-70
2021/07/10 02:31:33;;;;;;;18.58;9.05;;;;;;;21.73;67.88;100105.50;5114206;28;20040;-70
2021/07/10 02:33:59;;;;;;;15.95;9.00;;;;;;;21.66;68.17;100105.41;5114268;28;20072;-71
2021/07/10 02:36:25;;;;;;;20.38;9.07;;;;;;;21.65;68.55;100101.03;5096051;28;20130;-74
2021/07/10 02:38:50;;;;;;;18.73;9.45;;;;;;;21.67;68.96;100099.03;5114324;28;20051;-72
2021/07/10 02:41:16;;;;;;;16.42;8.55;;;;;;;21.68;69.24;100100.66;5113740;28;20039;-72
2021/07/10 02:43:42;;;;;;;17.50;8.63;;;;;;;21.70;69.11;100098.63;5095948;28;20539;-74
2021/07/10 02:46:08;;;;;;;15.10;8.45;;;;;;;21.73;69.09;100098.28;5095958;28;20043;-72
2021/07/10 02:48:34;;;;;;;17.88;8.77;;;;;;;21.85;68.85;100092.47;5114095;28;20510;-70
2021/07/10 02:51:01;;;;;;;21.75;9.02;;;;;;;22.02;68.72;100091.31;5114417;28;20044;-71
2021/07/10 02:53:26;;;;;;;15.95;8.40;;;;;;;22.20;67.89;100090.13;5114019;28;20050;-72
2021/07/10 02:55:52;;;;;;;13.05;7.72;;;;;;;22.36;66.86;100092.63;5095894;28;20043;-72
2021/07/10 02:58:18;;;;;;;12.00;7.00;;;;;;;22.53;65.12;100095.16;5114370;28;20492;-75
2021/07/10 03:00:44;;;;;;;14.13;7.20;;;;;;;22.66;64.19;100084.56;5095885;28;20483;-71
2021/07/10 03:03:10;;;;;;;22.77;7.90;;;;;;;22.84;64.39;100088.72;5113860;28;20040;-71
2021/07/10 03:05:37;;;;;;;17.65;8.40;;;;;;;22.94;65.02;100083.84;5113648;28;20058;-72
2021/07/10 03:08:04;;;;;;;14.32;8.02;;;;;;;23.04;64.76;100083.56;5095827;28;20484;-72
2021/07/10 03:10:30;;;;;;;15.45;8.50;;;;;;;23.15;64.73;100084.94;5095302;28;20044;-73
2021/07/10 03:12:58;;;;;;;18.60;8.05;;;;;;;23.26;64.53;100076.38;5114048;28;20118;-72
2021/07/10 03:15:24;;;;;;;;;;;;;;;23.27;64.83;100083.44;5114049;28;20567;-72
2021/07/10 03:17:50;;;;;;;14.98;7.78;;;;;;;23.38;64.19;100079.41;5113678;28;19920;-73
2021/07/10 03:20:18;;;;;;;18.40;8.30;;;;;;;23.50;64.21;100077.00;5113572;28;20051;-73
2021/07/10 03:22:44;;;;;;;13.55;7.55;;;;;;;23.61;63.85;100078.38;5095320;28;20408;-72
2021/07/10 03:25:11;;;;;;;11.90;7.43;;;;;;;23.67;63.28;100081.09;5113982;28;20055;-73
2021/07/10 03:27:38;;;;;;;12.63;7.70;;;;;;;23.72;63.05;100089.47;5113720;28;20039;-72
2021/07/10 03:30:05;;;;;;;15.43;7.88;;;;;;;23.68;62.78;100080.09;5113953;28;20349;-74
2021/07/10 03:32:31;;;;;;;14.52;7.85;;;;;;;23.65;62.73;100090.44;5113560;28;20044;-72
2021/07/10 03:34:57;;;;;;;14.07;7.82;;;;;;;23.60;62.23;100077.50;5113811;28;20181;-73
2021/07/10 03:37:23;;;;;;;12.82;8.07;;;;;;;23.49;62.78;100080.72;5113618;28;20126;-73
2021/07/10 03:39:49;;;;;;;12.40;7.85;;;;;;;23.23;64.05;100076.75;5113644;28;20559;-74
2021/07/10 03:42:15;;;;;;;12.85;8.05;;;;;;;23.03;64.20;100087.28;5113344;28;20040;-71
2021/07/10 03:44:41;;;;;;;15.00;8.18;;;;;;;22.93;64.38;100082.22;5113172;28;20387;-71
2021/07/10 03:47:06;;;;;;;17.42;8.23;;;;;;;22.86;64.78;100083.97;5113470;28;20043;-73
2021/07/10 03:49:32;;;;;;;13.50;8.43;;;;;;;22.84;65.06;100078.78;5095158;28;20055;-73
2021/07/10 03:51:58;;;;;;;14.23;8.10;;;;;;;22.88;64.70;100090.00;5113364;28;20044;-73
2021/07/10 03:54:24;;;;;;;14.60;8.48;;;;;;;22.86;64.85;100086.69;5112899;28;20040;-73
2021/07/10 03:56:50;;;;;;;18.50;8.32;;;;;;;22.91;64.65;100086.94;5113271;28;20044;-73
2021/07/10 03:59:15;;;;;;;16.45;7.63;;;;;;;23.08;64.55;100082.19;5113097;28;20075;-74
2021/07/10 04:01:45;;;;;;;12.18;7.60;;;;;;;23.33;64.20;100079.97;5112994;28;20122;-72
2021/07/10 04:04:14;;;;;;;12.43;7.70;;;;;;;23.60;62.63;100082.91;5113034;28;20035;-75
2021/07/10 04:06:40;;;;;;;13.65;7.35;;;;;;;24.06;61.62;100077.09;5112349;28;20528;-74
2021/07/10 04:09:07;;;;;;;15.05;7.43;;;;;;;24.01;60.00;100068.75;5113285;28;20540;-73
2021/07/10 04:11:33;;;;;;;13.02;6.70;;;;;;;23.87;59.26;100073.16;5112823;28;20058;-74
2021/07/10 04:13:59;;;;;;;18.38;7.70;;;;;;;23.87;60.36;100075.03;5112690;28;20050;-72
2021/07/10 04:16:25;;;;;;;17.55;7.20;;;;;;;23.92;61.08;100069.09;5112442;28;20531;-72
2021/07/10 04:18:51;;;;;;;14.65;7.22;;;;;;;24.03;62.13;100072.06;5112835;28;20051;-74
2021/07/10 04:21:16;;;;;;;13.68;7.88;;;;;;;24.17;61.67;100066.75;5094407;28;20042;-73
2021/07/10 04:23:43;;;;;;;13.00;7.57;;;;;;;24.36;61.21;100074.16;5112406;28;20415;-72
2021/07/10 04:26:08;;;;;;;16.95;7.57;;;;;;;24.53;60.98;100060.31;5112752;28;20050;-72
2021/07/10 04:28:34;;;;;;;13.70;7.93;;;;;;;24.65;60.61;100069.56;5112493;28;20130;-73
2021/07/10 04:31:02;;;;;;;17.52;7.68;;;;;;;24.80;60.22;100060.44;5111796;28;20043;-74
2021/07/10 04:33:28;;;;;;;14.52;7.60;;;;;;;24.96;59.96;100060.09;5094144;28;20051;-73
2021/07/10 04:35:54;;;;;;;15.07;7.35;;;;;;;25.10;59.79;100062.84;5112507;28;20051;-74
2021/07/10 04:38:20;;;;;;;16.83;7.47;;;;;;;25.14;59.66;100059.50;5112778;28;20476;-72
2021/07/10 04:40:47;;;;;;;18.40;7.80;;;;;;;25.31;59.80;100059.97;5112176;28;20126;-73
2021/07/10 04:43:15;;;;;;;16.88;10.63;;;;;;;25.40;59.01;100059.81;5112604;28;20046;-73
2021/07/10 04:45:41;;;;;;;15.05;8.48;;;;;;;25.43;59.04;100056.69;5112041;28;20035;-71
2021/07/10 04:48:07;;;;;;;18.13;8.18;;;;;;;25.66;58.47;100059.81;5111951;28;20044;-76
2021/07/10 04:50:33;;;;;;;15.40;8.75;;;;;;;26.49;56.43;100063.03;5112207;28;20134;-74
2021/07/10 04:52:59;;;;;;;14.27;7.60;;;;;;;28.75;50.72;100058.03;5112159;28;20047;-75
2021/07/10 04:55:25;;;;;;;17.38;7.57;;;;;;;30.76;45.82;100054.69;5093506;28;20047;-73
2021/07/10 04:57:50;;;;;;;14.35;6.30;;;;;;;32.45;42.28;100056.91;5094583;28;20412;-73
2021/07/10 05:00:17;;;;;;;17.00;8.30;;;;;;;32.67;40.60;100054.97;5112215;28;20057;-72
2021/07/10 05:02:43;;;;;;;;;;;;;;;32.55;40.26;100054.28;5112307;28;20051;-73
2021/07/10 05:05:10;;;;;;;13.10;5.83;;;;;;;32.68;40.38;100055.81;5112388;28;19920;-75
2021/07/10 05:07:36;;;;;;;16.60;5.80;;;;;;;33.49;36.67;100040.50;5111949;28;20073;-74
2021/07/10 05:10:03;;;;;;;15.87;5.93;;;;;;;33.94;34.87;100046.59;5112228;28;20559;-75
2021/07/10 05:12:29;;;;;;;13.82;5.65;;;;;;;35.32;33.52;100045.47;5111457;28;20463;-80
2021/07/10 05:14:56;;;;;;;11.63;5.27;;;;;;;37.09;29.73;100039.16;5112043;28;20044;-77
2021/07/10 05:17:22;;;;;;;7.40;4.50;;;;;;;38.41;27.84;100042.91;5111864;28;20047;-76
2021/07/10 05:19:49;;;;;;;10.15;4.63;;;;;;;39.66;25.99;100039.13;5112906;28;20426;-74
2021/07/10 05:22:18;;;;;;;8.38;4.53;;;;;;;40.75;23.97;100038.56;5112235;28;20046;-79
2021/07/10 05:24:44;;;;;;;7.90;4.32;;;;;;;41.83;22.81;100038.69;5112061;28;20097;-76
2021/07/10 05:27:10;;;;;;;9.05;4.43;;;;;;;42.75;21.15;100034.41;5094022;28;20047;-81
2021/07/10 05:29:36;;;;;;;8.38;4.15;;;;;;;43.00;19.61;100035.53;5093468;28;20418;-78
2021/07/10 05:32:04;;;;;;;9.18;4.53;;;;;;;42.91;20.17;100029.16;5093555;28;20134;-75
2021/07/10 05:34:30;;;;;;;9.60;4.22;;;;;;;43.13;19.31;100021.78;5093719;28;20094;-80
2021/07/10 05:36:56;;;;;;;9.13;3.85;;;;;;;42.79;19.47;100021.47;5060572;28;20040;-82
2021/07/10 05:39:21;;;;;;;;;;;;;;;42.67;19.61;100016.53;5061150;28;20050;-76
2021/07/10 05:41:47;;;;;;;5.82;4.03;;;;;;;42.45;19.39;100025.03;5109487;28;20006;-81
2021/07/10 05:44:13;;;;;;;;;;;;;;;40.51;21.16;100028.53;5060358;28;20075;-76
2021/07/10 05:46:38;;;;;;;;;;;;;;;39.25;22.84;100024.00;5096394;28;19920;-77
2021/07/10 05:49:04;;;;;;;;;;;;;;;39.03;22.72;100028.19;5095964;28;19927;-74
2021/07/10 05:51:30;;;;;;;9.25;4.13;;;;;;;40.36;21.45;100020.56;5077308;28;19923;-73
2021/07/10 05:53:56;;;;;;;7.15;4.10;;;;;;;41.84;20.27;100011.72;5095264;28;20047;-76
2021/07/10 05:56:21;;;;;;;5.45;4.07;;;;;;;42.82;19.44;100017.19;5095530;28;20052;-76
2021/07/10 05:58:47;;;;;;;7.45;3.80;;;;;;;42.20;20.04;100019.88;5094990;28;20120;-75
2021/07/10 06:01:13;;;;;;;;;;;;;;;40.48;21.43;100022.78;5077591;28;20091;-78
2021/07/10 06:03:39;;;;;;;6.28;4.00;;;;;;;39.36;23.27;100025.47;5094846;28;19989;-75
2021/07/10 06:06:05;;;;;;;8.40;4.20;;;;;;;41.09;21.37;100026.16;5100478;28;20617;-75
2021/07/10 06:08:33;;;;;;;8.50;3.25;;;;;;;41.99;20.24;100008.53;5111722;28;20492;-75
2021/07/10 06:10:59;;;;;;;7.93;3.63;;;;;;;41.52;20.59;100027.59;5076146;28;20052;-77
2021/07/10 06:13:24;;;;;;;9.73;4.10;;;;;;;39.70;23.00;100016.03;5114014;28;20035;-80
2021/07/10 06:15:50;;;;;;;10.13;4.38;;;;;;;38.17;24.83;100016.09;5077445;28;20097;-77
2021/07/10 06:18:16;;;;;;;11.07;4.07;;;;;;;37.19;25.80;100019.78;5096030;28;20043;-76
2021/07/10 06:20:42;;;;;;;6.65;3.55;;;;;;;36.66;26.53;100022.31;5112622;28;20043;-76
2021/07/10 06:23:08;;;;;;;6.97;3.60;;;;;;;36.88;26.32;100019.19;5113670;28;20036;-77
2021/07/10 06:25:36;;;;;;;6.70;3.60;;;;;;;36.28;26.81;100020.81;5113209;28;20430;-79
2021/07/10 06:28:04;;;;;;;9.02;3.97;;;;;;;35.92;27.31;100015.44;5094735;28;20134;-78
2021/07/10 06:30:30;;;;;;;11.65;3.90;;;;;;;36.69;26.90;100013.47;5093988;28;20100;-76
2021/07/10 06:32:56;;;;;;;6.60;3.97;;;;;;;38.82;23.98;100008.31;5096402;28;20407;-82
2021/07/10 06:35:21;;;;;;;6.20;3.80;;;;;;;40.21;23.23;100019.75;5076338;28;20044;-75
2021/07/10 06:37:47;;;;;;;5.38;3.90;;;;;;;40.32;23.16;100005.69;5113528;28;20544;-73
2021/07/10 06:40:14;;;;;;;6.07;3.92;;;;;;;40.60;23.03;100014.78;5113308;28;20042;-71
2021/07/10 06:42:41;;;;;;;5.65;3.95;;;;;;;41.04;22.32;100007.69;5109514;28;20043;-73
2021/07/10 06:45:10;;;;;;;10.75;3.90;;;;;;;41.51;22.39;100012.06;5102579;28;20047;-72
2021/07/10 06:47:35;;;;;;;7.28;4.03;;;;;;;41.93;21.45;100003.44;5112813;28;20143;-73
2021/07/10 06:50:04;;;;;;;7.35;4.22;;;;;;;42.28;21.22;100009.13;5113227;28;20031;-72
2021/07/10 06:52:29;;;;;;;10.35;4.22;;;;;;;42.62;21.31;100002.78;5092172;28;20075;-72
2021/07/10 06:54:55;;;;;;;6.60;4.07;;;;;;;42.91;20.92;100008.84;5106379;28;20108;-73
2021/07/10 06:57:21;;;;;;;7.10;3.92;;;;;;;43.18;20.75;100012.44;5112202;28;20065;-73
2021/07/10 06:59:48;;;;;;;6.57;4.22;;;;;;;43.36;20.75;100002.91;5109168;28;20403;-74
2021/07/10 07:02:14;;;;;;;6.75;4.10;;;;;;;43.48;20.66;100004.97;5112190;28;20126;-72
2021/07/10 07:04:40;;;;;;;8.45;5.00;;;;;;;43.78;19.15;100002.28;5112145;28;20116;-73
2021/07/10 07:07:06;;;;;;;7.38;3.92;;;;;;;43.82;18.64;100000.47;5111890;28;20059;-76
2021/07/10 07:09:32;;;;;;;8.30;4.32;;;;;;;43.98;19.55;99999.91;5111997;28;20036;-73
2021/07/10 07:11:58;;;;;;;8.63;4.38;;;;;;;44.30;19.24;100000.38;5092566;28;20047;-76
2021/07/10 07:14:24;;;;;;;9.70;4.35;;;;;;;44.57;18.11;99999.84;5113240;28;20096;-78
2021/07/10 07:16:49;;;;;;;6.22;4.10;;;;;;;44.85;18.48;100002.13;5094488;28;20082;-76
2021/07/10 07:19:15;;;;;;;8.20;4.10;;;;;;;44.63;17.76;100002.44;5112644;28;20414;-73
2021/07/10 07:21:41;;;;;;;6.72;4.10;;;;;;;44.35;18.45;100003.00;5112185;28;20123;-74
2021/07/10 07:24:07;;;;;;;6.65;4.35;;;;;;;44.43;18.37;100008.50;5112361;28;20126;-72
2021/07/10 07:26:34;;;;;;;6.30;4.43;;;;;;;44.63;18.32;100002.44;5093905;28;20047;-73
2021/07/10 07:28:59;;;;;;;11.93;4.55;;;;;;;44.62;18.09;100000.78;5093915;28;20058;-71
2021/07/10 07:31:26;;;;;;;8.07;4.63;;;;;;;44.56;18.22;100012.16;5094370;28;20036;-72
2021/07/10 07:33:52;;;;;;;5.40;4.30;;;;;;;44.71;18.01;100004.34;5109226;28;20068;-74
2021/07/10 07:36:17;;;;;;;8.02;4.50;;;;;;;44.81;17.96;100003.94;5092721;28;20067;-73
2021/07/10 07:38:43;;;;;;;8.32;4.47;;;;;;;44.94;17.37;100001.22;5093331;28;20087;-70
2021/07/10 07:41:09;;;;;;;12.27;4.88;;;;;;;44.54;17.56;99997.75;5102276;28;20638;-72
2021/07/10 07:43:35;;;;;;;9.45;4.50;;;;;;;44.10;17.60;100000.81;5092639;28;20092;-77
2021/07/10 07:46:01;;;;;;;11.02;4.45;;;;;;;43.18;18.42;100002.13;5109183;28;20093;-74
2021/07/10 07:48:26;;;;;;;8.50;4.43;;;;;;;42.37;19.13;99996.03;5075255;28;20134;-77
2021/07/10 07:50:52;;;;;;;8.50;4.55;;;;;;;41.67;18.96;99996.59;5100732;28;20070;-79
2021/07/10 07:53:19;;;;;;;6.63;5.00;;;;;;;42.78;19.06;99999.53;5108216;28;20057;-76
2021/07/10 07:55:46;;;;;;;22.52;6.85;;;;;;;43.54;18.74;99986.97;5110613;28;20391;-76
2021/07/10 07:58:13;;;;;;;8.90;4.80;;;;;;;44.09;17.33;99985.25;5104099;28;20047;-75
2021/07/10 08:00:38;;;;;;;7.13;4.68;;;;;;;44.32;16.41;99978.53;5107739;28;20122;-75
2021/07/10 08:03:04;;;;;;;6.60;5.57;;;;;;;43.39;17.75;99981.94;5093376;28;20064;-73
2021/07/10 08:05:30;;;;;;;9.10;5.10;;;;;;;43.71;18.51;99985.28;5097706;28;20082;-75
2021/07/10 08:07:56;;;;;;;7.05;4.85;;;;;;;43.90;17.23;99971.72;5105227;28;20137;-78
2021/07/10 08:10:23;;;;;;;5.35;4.75;;;;;;;43.63;16.89;99973.00;5074465;28;20048;-74
2021/07/10 08:12:50;;;;;;;6.72;5.00;;;;;;;43.42;17.79;99972.88;5099360;28;20047;-72
2021/07/10 08:15:18;;;;;;;5.80;4.82;;;;;;;43.18;17.63;99973.47;5113106;28;20035;-74
2021/07/10 08:17:45;;;;;;;9.07;5.03;;;;;;;42.89;18.54;99961.88;5107239;28;20040;-78
2021/07/10 08:20:13;;;;;;;10.73;5.25;;;;;;;43.59;18.07;99961.72;5106365;28;20495;-76
2021/07/10 08:22:39;;;;;;;6.47;4.90;;;;;;;44.14;17.51;99959.13;5112827;28;20304;-74
2021/07/10 08:25:06;;;;;;;13.60;5.07;;;;;;;44.28;17.12;99959.69;5113215;28;20509;-79
2021/07/10 08:27:32;;;;;;;10.65;5.03;;;;;;;43.70;17.16;99958.56;5096002;28;20067;-81
2021/07/10 08:29:58;;;;;;;8.70;5.10;;;;;;;41.83;18.58;99962.84;5092886;28;20495;-78
2021/07/10 08:32:24;;;;;;;10.25;5.00;;;;;;;41.92;18.64;99969.28;5092692;28;20090;-78
2021/07/10 08:34:50;;;;;;;12.82;6.57;;;;;;;42.45;17.84;99961.06;5092428;28;20067;-75
2021/07/10 08:37:16;;;;;;;5.75;5.18;;;;;;;42.44;17.09;99965.78;5092925;28;20046;-75
2021/07/10 08:39:42;;;;;;;10.00;4.82;;;;;;;41.71;18.73;99961.50;5057789;28;20039;-75
2021/07/10 08:42:08;;;;;;;7.80;5.70;;;;;;;40.50;19.55;99965.88;5075051;28;20040;-77
2021/07/10 08:44:34;;;;;;;;;;;;;;;38.91;21.32;99954.00;5093108;28;20134;-77
2021/07/10 08:47:00;;;;;;;9.50;5.68;;;;;;;40.39;19.92;99961.72;5074250;28;19954;-74
2021/07/10 08:49:26;;;;;;;10.60;5.78;;;;;;;42.19;18.14;99950.69;5057578;28;20412;-77
2021/07/10 08:51:53;;;;;;;6.78;5.68;;;;;;;42.75;17.61;99955.69;5092290;28;20094;-81
2021/07/10 08:54:18;;;;;;;5.65;4.68;;;;;;;40.65;18.31;99961.97;5074650;28;20113;-84
2021/07/10 08:56:44;;;;;;;;;;;;;;;39.73;19.64;99957.28;5093121;28;20524;-81
2021/07/10 08:59:11;;;;;;;8.15;4.93;;;;;;;38.88;20.91;99948.25;5074254;28;19961;-81
2021/07/10 09:01:38;;;;;;;9.10;5.38;;;;;;;38.59;20.89;99950.03;5073949;28;20050;-77
2021/07/10 09:04:05;;;;;;;8.52;5.40;;;;;;;38.40;21.28;99941.75;5092869;28;20036;-79
2021/07/10 09:06:31;;;;;;;13.55;7.20;;;;;;;38.83;21.85;99944.44;5074725;28;20040;-77
2021/07/10 09:08:57;;;;;;;10.15;6.18;;;;;;;40.84;19.39;99944.31;5092547;28;20350;-76
2021/07/10 09:11:24;;;;;;;6.97;6.05;;;;;;;41.97;17.75;99937.75;5092589;28;20069;-77
2021/07/10 09:13:52;;;;;;;10.00;5.90;;;;;;;42.63;17.26;99932.06;5057991;28;20047;-76
2021/07/10 09:16:24;;;;;;;7.03;5.80;;;;;;;43.27;16.95;99933.31;5092392;28;20076;-77
2021/07/10 09:18:51;;;;;;;10.60;6.93;;;;;;;44.15;16.13;99930.09;5095995;28;20043;-77
2021/07/10 09:21:41;;;;;;;12.27;6.68;;;;;;;44.57;15.92;99937.66;5061660;28;20044;-79
2021/07/10 09:24:14;;;;;;;8.43;5.88;;;;;;;41.29;18.16;99938.75;5096985;28;20044;-79
2021/07/10 09:26:47;;;;;;;9.32;5.70;;;;;;;39.27;20.40;99934.03;5096430;28;20476;-80
2021/07/10 09:29:21;;;;;;;6.25;5.60;;;;;;;38.16;21.82;99931.56;5095927;28;20040;-79
2021/07/10 09:31:53;;;;;;;7.78;5.90;;;;;;;37.55;22.46;99928.41;5096142;28;20121;-79
2021/07/10 09:34:21;;;;;;;12.23;5.97;;;;;;;38.23;22.23;99924.84;5096293;28;20378;-80
2021/07/10 09:37:02;;;;;;;11.00;6.40;;;;;;;38.31;22.83;99924.22;5061414;28;20070;-78
2021/07/10 09:39:30;;;;;;;10.57;5.88;;;;;;;40.10;20.43;99919.41;5096573;28;20123;-76
2021/07/10 09:41:58;;;;;;;8.43;6.20;;;;;;;41.64;18.92;99905.59;5095678;28;20086;-82
2021/07/10 09:44:24;;;;;;;12.25;6.35;;;;;;;41.08;19.09;99914.31;5096077;28;20104;-76
2021/07/10 09:46:50;;;;;;;9.38;5.65;;;;;;;40.35;19.62;99914.41;5095440;28;20050;-81
2021/07/10 09:49:30;;;;;;;7.20;6.03;;;;;;;39.65;20.10;99919.19;5078149;28;20043;-76
2021/07/10 09:52:05;;;;;;;7.38;5.28;;;;;;;38.82;20.50;99920.66;5095350;28;20066;-75
2021/07/10 09:54:34;;;;;;;10.00;6.30;;;;;;;38.08;21.64;99907.34;5077386;28;20036;-76
2021/07/10 09:57:12;;;;;;;10.52;7.80;;;;;;;38.29;21.85;99909.88;5095692;28;20089;-77
2021/07/10 09:59:50;;;;;;;9.02;5.45;;;;;;;39.28;20.16;99901.63;5095452;28;20040;-76
2021/07/10 10:02:18;;;;;;;9.00;6.18;;;;;;;39.90;19.37;99904.00;5098260;28;20131;-75
2021/07/10 10:04:45;;;;;;;7.88;6.18;;;;;;;40.87;18.02;99904.88;5094730;28;20040;-81
2021/07/10 10:07:19;;;;;;;8.60;5.80;;;;;;;41.71;18.30;99896.78;5094470;28;20080;-77
2021/07/10 10:09:52;;;;;;;6.90;6.20;;;;;;;42.23;16.89;99890.50;5095465;28;20043;-80
2021/07/10 10:12:18;;;;;;;6.60;6.00;;;;;;;42.17;16.99;99897.38;5095450;28;20177;-78
2021/07/10 10:14:47;;;;;;;6.45;5.85;;;;;;;41.69;16.79;99888.78;5095271;28;20501;-79
2021/07/10 10:17:15;;;;;;;7.22;6.53;;;;;;;41.17;17.56;99891.34;5095153;28;20130;-81
2021/07/10 10:19:42;;;;;;;13.10;11.45;;;;;;;41.00;18.15;99890.13;5095236;28;20040;-80
2021/07/10 10:22:10;;;;;;;10.05;8.85;;;;;;;40.33;18.79;99888.13;5095449;28;20063;-79
2021/07/10 10:24:37;;;;;;;7.40;6.57;;;;;;;40.11;18.53;99887.78;5076925;28;20089;-76
2021/07/10 10:27:04;;;;;;;7.50;6.60;;;;;;;39.66;18.86;99882.09;5094638;28;20040;-74
2021/07/10 10:29:30;;;;;;;8.73;6.80;;;;;;;39.36;19.18;99878.78;5093769;28;20044;-74
2021/07/10 10:31:58;;;;;;;11.35;10.15;;;;;;;39.15;19.97;99879.13;5094457;28;20040;-81
2021/07/10 10:34:24;;;;;;;9.52;8.00;;;;;;;39.08;19.87;99870.44;5095069;28;20044;-76
2021/07/10 10:36:52;;;;;;;9.63;6.93;;;;;;;40.05;19.63;99874.34;5095205;28;20180;-75
2021/07/10 10:39:22;;;;;;;9.23;7.00;;;;;;;39.38;19.54;99865.47;5095483;28;20032;-77
2021/07/10 10:41:51;;;;;;;8.57;7.07;;;;;;;37.95;21.31;99869.44;5093802;28;20123;-79
2021/07/10 10:44:19;;;;;;;8.30;7.43;;;;;;;37.37;21.96;99871.19;5095041;28;20040;-78
2021/07/10 10:46:54;;;;;;;8.88;6.95;;;;;;;38.09;21.95;99870.31;5076952;28;20036;-79
2021/07/10 10:49:30;;;;;;;11.70;9.60;;;;;;;39.15;21.29;99868.06;5077250;28;20397;-76
2021/07/10 10:52:15;;;;;;;10.02;7.82;;;;;;;38.48;21.44;99871.16;5094510;28;20043;-77
2021/07/10 10:54:50;;;;;;;12.63;11.32;;;;;;;37.47;21.99;99871.06;5094749;28;20052;-80
2021/07/10 10:57:16;;;;;;;8.02;6.93;;;;;;;36.84;22.71;99875.53;5094778;28;20047;-75
2021/07/10 10:59:43;;;;;;;10.55;6.50;;;;;;;36.27;23.23;99869.59;5094270;28;20040;-76
2021/07/10 11:02:30;;;;;;;25.05;22.05;;;;;;;35.93;23.84;99873.94;5094483;28;20043;-78
2021/07/10 11:04:56;;;;;;;28.02;22.48;;;;;;;35.76;24.50;99874.25;5086902;28;20493;-77
2021/07/10 11:07:26;;;;;;;21.98;18.00;;;;;;;35.58;24.98;99872.94;5094221;28;20116;-75
2021/07/10 11:10:24;;;;;;;26.75;23.92;;;;;;;35.55;25.66;99868.00;5093330;28;20396;-76
2021/07/10 11:12:51;;;;;;;24.15;21.65;;;;;;;35.72;25.83;99864.09;5050968;28;20099;-75
2021/07/10 11:15:28;;;;;;;10.77;8.50;;;;;;;36.36;24.68;99867.06;5051448;28;20045;-75
2021/07/10 11:17:56;;;;;;;8.35;6.80;;;;;;;36.86;23.28;99858.72;5035087;28;20072;-75
2021/07/10 11:20:48;;;;;;;8.38;6.35;;;;;;;37.14;23.66;99853.50;5051731;28;20052;-77
2021/07/10 11:23:33;;;;;;;10.68;9.35;;;;;;;37.42;23.47;99851.81;5051700;28;20106;-77
2021/07/10 11:26:06;;;;;;;8.02;6.47;;;;;;;37.53;22.68;99850.59;5035000;28;20568;-76